createdAt,value
2019-05-09T00:01:33.461Z,95627.84
2019-05-09T00:04:27.022Z,95625.30
2019-05-09T00:07:24.000Z,95632.16
2019-05-09T00:10:37.590Z,95630.10
2019-05-09T00:13:17.108Z,95628.86
2019-05-09T00:16:14.714Z,95623.38
2019-05-09T00:19:09.227Z,95628.45
2019-05-09T00:22:05.912Z,95624.28
2019-05-09T00:25:15.338Z,95634.86
2019-05-09T00:28:15.274Z,95629.44
2019-05-09T00:31:23.897Z,95627.78
2019-05-09T00:34:19.342Z,95634.95
2019-05-09T00:37:16.813Z,95630.80
2019-05-09T00:40:23.906Z,95633.79
2019-05-09T00:43:19.565Z,95633.78
2019-05-09T00:46:30.127Z,95640.19
2019-05-09T00:49:36.838Z,95638.53
2019-05-09T00:52:33.990Z,95636.00
2019-05-09T00:55:29.466Z,95642.81
2019-05-09T00:58:27.210Z,95639.84
2019-05-09T01:01:24.284Z,95646.18
2019-05-09T01:04:18.619Z,95650.42
2019-05-09T01:07:15.054Z,95654.67
2019-05-09T01:10:13.418Z,95653.39
2019-05-09T01:13:08.604Z,95648.79
2019-05-09T01:16:04.782Z,95642.02
2019-05-09T01:19:03.674Z,95648.83
2019-05-09T01:21:59.061Z,95648.83
2019-05-09T01:24:54.910Z,95654.73
2019-05-09T01:27:54.073Z,95651.83
2019-05-09T01:30:49.373Z,95647.59
2019-05-09T01:33:53.991Z,95636.23
2019-05-09T01:37:03.475Z,95629.91
2019-05-09T01:39:57.360Z,95648.50
2019-05-09T01:42:53.989Z,95647.23
2019-05-09T01:45:49.833Z,95633.73
2019-05-09T01:48:47.681Z,95632.05
2019-05-09T01:51:44.454Z,95619.37
2019-05-09T01:54:40.105Z,95623.61
2019-05-09T01:57:36.999Z,95629.52
2019-05-09T02:00:33.963Z,95631.65
2019-05-09T02:03:33.483Z,95632.08
2019-05-09T02:06:28.067Z,95624.48
2019-05-09T02:09:26.319Z,95625.78
2019-05-09T02:12:24.499Z,95633.78
2019-05-09T02:15:39.082Z,95635.05
2019-05-09T02:18:45.867Z,95635.91
2019-05-09T02:21:43.702Z,95639.24
2019-05-09T02:24:39.043Z,95636.71
2019-05-09T02:27:34.821Z,95627.87
2019-05-09T02:30:35.906Z,95625.33
2019-05-09T02:33:28.470Z,95622.85
2019-05-09T02:36:25.173Z,95629.61
2019-05-09T02:39:21.812Z,95628.37
2019-05-09T02:42:29.739Z,95629.20
2019-05-09T02:45:30.535Z,95626.69
2019-05-09T02:48:28.733Z,95624.55
2019-05-09T02:51:33.064Z,95624.55
2019-05-09T02:54:29.975Z,95622.89
2019-05-09T02:57:29.075Z,95623.72
2019-05-09T03:00:32.736Z,95625.86
2019-05-09T03:03:34.332Z,95632.19
2019-05-09T03:06:30.100Z,95625.86
2019-05-09T03:09:29.083Z,95621.22
2019-05-09T03:12:34.439Z,95627.55
2019-05-09T03:15:21.347Z,95628.84
2019-05-09T03:18:18.432Z,95624.66
2019-05-09T03:21:29.650Z,95626.31
2019-05-09T03:24:23.319Z,95624.66
2019-05-09T03:27:22.142Z,95619.59
2019-05-09T03:30:20.941Z,95611.14
2019-05-09T03:33:19.830Z,95613.66
2019-05-09T03:36:13.224Z,95608.20
2019-05-09T03:39:08.856Z,95612.89
2019-05-09T03:42:07.865Z,95603.60
2019-05-09T03:45:02.714Z,95606.56
2019-05-09T03:48:01.942Z,95603.64
2019-05-09T03:50:59.848Z,95600.67
2019-05-09T03:53:57.576Z,95604.50
2019-05-09T03:56:54.224Z,95610.42
2019-05-09T03:59:51.920Z,95610.42
2019-05-09T04:02:47.609Z,95608.79
2019-05-09T04:05:58.495Z,95603.79
2019-05-09T04:08:39.967Z,95612.23
2019-05-09T04:11:38.863Z,95605.52
2019-05-09T04:14:34.321Z,95608.84
2019-05-09T04:17:31.954Z,95610.55
2019-05-09T04:20:27.804Z,95615.17
2019-05-09T04:23:24.392Z,95610.96
2019-05-09T04:26:30.796Z,95598.72
2019-05-09T04:29:28.592Z,95602.98
2019-05-09T04:32:27.374Z,95600.45
2019-05-09T04:35:23.343Z,95601.28
2019-05-09T04:38:19.145Z,95603.39
2019-05-09T04:41:23.721Z,95609.68
2019-05-09T04:44:17.160Z,95599.99
2019-05-09T04:47:09.121Z,95597.03
2019-05-09T04:50:04.768Z,95605.45
2019-05-09T04:53:01.518Z,95613.91
2019-05-09T04:55:59.867Z,95613.91
2019-05-09T04:59:01.932Z,95616.45
2019-05-09T05:02:23.833Z,95619.00
2019-05-09T05:05:19.522Z,95616.06
2019-05-09T05:08:18.150Z,95616.52
2019-05-09T05:11:13.756Z,95610.63
2019-05-09T05:14:10.237Z,95614.45
2019-05-09T05:17:11.603Z,95621.17
2019-05-09T05:20:08.405Z,95618.23
2019-05-09T05:23:23.271Z,95627.49
2019-05-09T05:26:20.186Z,95626.69
2019-05-09T05:29:19.852Z,95629.22
2019-05-09T05:32:19.110Z,95632.55
2019-05-09T05:35:18.561Z,95632.55
2019-05-09T05:38:19.709Z,95628.78
2019-05-09T05:41:20.745Z,95627.52
2019-05-09T05:44:17.769Z,95623.32
2019-05-09T05:47:29.360Z,95630.48
2019-05-09T05:50:23.882Z,95626.68
2019-05-09T05:53:19.815Z,95622.87
2019-05-09T05:56:17.532Z,95622.38
2019-05-09T05:59:12.343Z,95618.97
2019-05-09T06:02:10.254Z,95614.69
2019-05-09T06:05:08.307Z,95620.12
2019-05-09T06:08:08.147Z,95617.09
2019-05-09T06:11:01.922Z,95608.56
2019-05-09T06:14:08.124Z,95617.78
2019-05-09T06:16:54.461Z,95618.55
2019-05-09T06:19:53.263Z,95621.80
2019-05-09T06:22:50.053Z,95616.66
2019-05-09T06:26:01.131Z,95617.43
2019-05-09T06:28:59.631Z,95613.97
2019-05-09T06:31:58.482Z,95613.45
2019-05-09T06:34:54.419Z,95617.64
2019-05-09T06:37:52.993Z,95614.58
2019-05-09T06:41:00.064Z,95611.98
2019-05-09T06:44:14.371Z,95618.63
2019-05-09T06:47:08.073Z,95615.14
2019-05-09T06:50:07.940Z,95619.22
2019-05-09T06:53:07.836Z,95618.22
2019-05-09T06:56:02.152Z,95619.34
2019-05-09T06:58:59.718Z,95634.85
2019-05-09T07:02:08.370Z,95618.66
2019-05-09T07:05:11.317Z,95614.29
2019-05-09T07:08:22.198Z,95606.59
2019-05-09T07:11:19.322Z,95605.59
2019-05-09T07:14:26.697Z,95605.00
2019-05-09T07:17:11.948Z,95618.05
2019-05-09T07:20:09.282Z,95605.26
2019-05-09T07:23:08.421Z,95600.94
2019-05-09T07:26:17.844Z,95595.61
2019-05-09T07:29:17.841Z,95590.84
2019-05-09T07:32:19.352Z,95592.04
2019-05-09T07:35:18.580Z,95593.55
2019-05-09T07:38:17.182Z,95587.39
2019-05-09T07:41:11.724Z,95588.42
2019-05-09T07:44:18.237Z,95582.03
2019-05-09T07:47:14.574Z,95581.05
2019-05-09T07:50:11.473Z,95581.83
2019-05-09T07:53:09.035Z,95579.45
2019-05-09T07:56:07.935Z,95585.56
2019-05-09T07:59:03.815Z,95589.47
2019-05-09T08:02:00.204Z,95580.84
2019-05-09T08:04:58.159Z,95578.25
2019-05-09T08:07:54.801Z,95567.44
2019-05-09T08:10:52.234Z,95570.97
2019-05-09T08:13:49.499Z,95570.09
2019-05-09T08:16:47.618Z,95573.91
2019-05-09T08:19:44.385Z,95578.95
2019-05-09T08:22:46.101Z,95577.44
2019-05-09T08:25:38.986Z,95576.85
2019-05-09T08:28:38.767Z,95575.70
2019-05-09T08:31:33.597Z,95575.78
2019-05-09T08:34:32.308Z,95574.55
2019-05-09T08:37:29.032Z,95562.55
2019-05-09T08:40:28.360Z,95549.85
2019-05-09T08:43:23.986Z,95546.83
2019-05-09T08:46:22.435Z,95553.62
2019-05-09T08:49:18.723Z,95554.68
2019-05-09T08:52:21.223Z,95554.34
2019-05-09T08:55:19.827Z,95553.78
2019-05-09T08:58:19.612Z,95558.95
2019-05-09T09:01:13.879Z,95551.09
2019-05-09T09:04:11.218Z,95550.20
2019-05-09T09:07:08.665Z,95549.95
2019-05-09T09:10:05.021Z,95555.52
2019-05-09T09:13:08.800Z,95537.27
2019-05-09T09:16:15.755Z,95538.34
2019-05-09T09:19:01.430Z,95540.15
2019-05-09T09:22:00.599Z,95537.04
2019-05-09T09:24:58.443Z,95535.17
2019-05-09T09:27:54.280Z,95527.30
2019-05-09T09:30:51.503Z,95531.34
2019-05-09T09:33:48.134Z,95529.45
2019-05-09T09:36:45.068Z,95517.47
2019-05-09T09:39:44.658Z,95517.47
2019-05-09T09:42:39.926Z,95513.94
2019-05-09T09:45:37.876Z,95519.36
2019-05-09T09:48:34.926Z,95504.83
2019-05-09T09:51:32.091Z,95503.94
2019-05-09T09:54:28.318Z,95499.23
2019-05-09T09:57:25.436Z,95500.78
2019-05-09T10:00:39.843Z,95499.13
2019-05-09T10:03:37.210Z,95497.63
2019-05-09T10:06:35.185Z,95500.47
2019-05-09T10:09:31.394Z,95491.38
2019-05-09T10:12:32.017Z,95497.90
2019-05-09T10:15:38.395Z,95490.23
2019-05-09T10:18:45.804Z,95494.00
2019-05-09T10:21:48.446Z,95493.25
2019-05-09T10:24:42.224Z,95488.40
2019-05-09T10:27:40.617Z,95493.16
2019-05-09T10:30:38.431Z,95497.31
2019-05-09T10:33:37.564Z,95484.93
2019-05-09T10:36:33.716Z,95496.42
2019-05-09T10:39:29.781Z,95497.44
2019-05-09T10:42:40.404Z,95499.27
2019-05-09T10:45:52.756Z,95500.46
2019-05-09T10:48:49.103Z,95493.69
2019-05-09T10:51:45.408Z,95492.80
2019-05-09T10:54:44.070Z,95494.36
2019-05-09T10:57:43.249Z,95495.13
2019-05-09T11:00:39.518Z,95504.55
2019-05-09T11:03:41.780Z,95502.94
2019-05-09T11:06:39.237Z,95511.42
2019-05-09T11:09:39.250Z,95501.42
2019-05-09T11:12:37.381Z,95504.71
2019-05-09T11:15:37.384Z,95509.83
2019-05-09T11:18:32.698Z,95509.94
2019-05-09T11:21:28.889Z,95509.21
2019-05-09T11:24:40.628Z,95518.07
2019-05-09T11:27:22.562Z,95529.32
2019-05-09T11:30:21.146Z,95551.16
2019-05-09T11:33:18.320Z,95539.44
2019-05-09T11:36:20.841Z,95563.03
2019-05-09T11:39:34.115Z,95568.46
2019-05-09T11:42:12.892Z,95578.07
2019-05-09T11:45:10.532Z,95579.34
2019-05-09T11:48:08.341Z,95580.85
2019-05-09T11:51:05.384Z,95584.75
2019-05-09T11:54:02.744Z,95589.86
2019-05-09T11:56:59.045Z,95605.34
2019-05-09T11:59:57.889Z,95606.78
2019-05-09T12:02:52.491Z,95611.42
2019-05-09T12:05:51.106Z,95603.27
2019-05-09T12:08:48.602Z,95607.52
2019-05-09T12:11:44.946Z,95610.21
2019-05-09T12:14:42.092Z,95595.28
2019-05-09T12:17:53.025Z,95588.32
2019-05-09T12:20:39.466Z,95597.95
2019-05-09T12:23:37.653Z,95585.06
2019-05-09T12:26:32.720Z,95583.60
2019-05-09T12:29:31.004Z,95584.20
2019-05-09T12:32:28.407Z,95580.16
2019-05-09T12:35:25.179Z,95566.18
2019-05-09T12:38:22.406Z,95559.30
2019-05-09T12:41:19.909Z,95550.96
2019-05-09T12:44:18.608Z,95550.20
2019-05-09T12:47:18.995Z,95549.87
2019-05-09T12:50:14.420Z,95532.55
2019-05-09T12:53:10.614Z,95538.41
2019-05-09T12:56:14.080Z,95533.97
2019-05-09T12:59:11.359Z,95527.49
2019-05-09T13:02:07.362Z,95531.80
2019-05-09T13:05:04.893Z,95524.12
2019-05-09T13:08:03.229Z,95526.39
2019-05-09T13:11:02.485Z,95522.81
2019-05-09T13:13:57.846Z,95519.19
2019-05-09T13:17:08.993Z,95516.55
2019-05-09T13:20:07.983Z,95506.02
2019-05-09T13:23:01.867Z,95504.59
2019-05-09T13:25:58.729Z,95508.50
2019-05-09T13:28:55.730Z,95498.82
2019-05-09T13:31:53.047Z,95495.69
2019-05-09T13:34:50.408Z,95486.00
2019-05-09T13:37:49.040Z,95480.46
2019-05-09T13:40:53.023Z,95486.81
2019-05-09T13:43:47.888Z,95481.77
2019-05-09T13:46:40.541Z,95478.27
2019-05-09T13:49:39.619Z,95470.52
2019-05-09T13:52:38.052Z,95457.47
2019-05-09T13:55:33.673Z,95452.14
2019-05-09T13:58:31.023Z,95454.03
2019-05-09T14:01:28.482Z,95451.83
2019-05-09T14:04:28.399Z,95455.82
2019-05-09T14:07:23.542Z,95444.73
2019-05-09T14:10:20.775Z,95448.93
2019-05-09T14:13:19.087Z,95457.23
2019-05-09T14:16:19.795Z,95453.31
2019-05-09T14:19:30.073Z,95449.55
2019-05-09T14:22:08.481Z,95458.91
2019-05-09T14:25:07.287Z,95459.27
2019-05-09T14:28:02.355Z,95448.81
2019-05-09T14:30:59.681Z,95453.98
2019-05-09T14:33:56.062Z,95451.79
2019-05-09T14:36:58.585Z,95447.28
2019-05-09T14:39:58.566Z,95441.69
2019-05-09T14:42:51.896Z,95436.78
2019-05-09T14:45:49.355Z,95435.73
2019-05-09T14:48:48.175Z,95448.39
2019-05-09T14:51:44.785Z,95455.02
2019-05-09T14:54:41.286Z,95462.97
2019-05-09T14:57:39.167Z,95474.84
2019-05-09T15:00:38.530Z,95504.53
2019-05-09T15:03:33.639Z,95526.61
2019-05-09T15:06:30.970Z,95561.92
2019-05-09T15:09:29.391Z,95567.53
2019-05-09T15:12:28.480Z,95554.73
2019-05-09T15:15:22.794Z,95520.48
2019-05-09T15:18:20.225Z,95485.66
2019-05-09T15:21:18.913Z,95480.87
2019-05-09T15:24:14.671Z,95487.41
2019-05-09T15:27:11.703Z,95482.52
2019-05-09T15:30:07.589Z,95483.93
2019-05-09T15:33:08.201Z,95475.13
2019-05-09T15:36:02.149Z,95480.47
2019-05-09T15:38:59.428Z,95482.70
2019-05-09T15:41:58.040Z,95481.09
2019-05-09T15:44:53.248Z,95485.67
2019-05-09T15:47:50.589Z,95486.27
2019-05-09T15:50:48.167Z,95485.51
2019-05-09T15:53:48.508Z,95483.71
2019-05-09T15:56:44.278Z,95483.19
2019-05-09T15:59:41.150Z,95487.56
2019-05-09T16:02:39.244Z,95485.22
2019-05-09T16:05:35.195Z,95491.28
2019-05-09T16:08:32.676Z,95494.63
2019-05-09T16:11:30.240Z,95499.23
2019-05-09T16:14:27.840Z,95500.10
2019-05-09T16:17:23.840Z,95503.53
2019-05-09T16:20:36.390Z,95512.70
2019-05-09T16:23:20.738Z,95511.22
2019-05-09T16:26:18.088Z,95558.11
2019-05-09T16:29:13.921Z,95553.08
2019-05-09T16:32:10.294Z,95547.80
2019-05-09T16:35:07.910Z,95546.27
2019-05-09T16:38:07.881Z,95555.48
2019-05-09T16:41:00.138Z,95548.23
2019-05-09T16:43:58.753Z,95558.70
2019-05-09T16:46:57.506Z,95567.89
2019-05-09T16:49:52.447Z,95575.52
2019-05-09T16:52:49.807Z,95581.14
2019-05-09T16:55:47.966Z,95579.41
2019-05-09T16:58:45.132Z,95574.78
2019-05-09T17:01:46.209Z,95572.39
2019-05-09T17:04:39.548Z,95572.44
2019-05-09T17:07:35.642Z,95573.09
2019-05-09T17:10:32.122Z,95573.37
2019-05-09T17:13:29.162Z,95577.75
2019-05-09T17:16:25.254Z,95575.30
2019-05-09T17:19:22.529Z,95578.14
2019-05-09T17:22:38.504Z,95571.63
2019-05-09T17:25:38.312Z,95571.48
2019-05-09T17:28:32.820Z,95570.68
2019-05-09T17:31:31.351Z,95579.90
2019-05-09T17:34:28.891Z,95587.81
2019-05-09T17:37:28.580Z,95594.58
2019-05-09T17:40:24.180Z,95608.21
2019-05-09T17:43:20.178Z,95616.80
2019-05-09T17:46:19.151Z,95629.69
2019-05-09T17:49:14.277Z,95635.72
2019-05-09T17:52:11.477Z,95648.72
2019-05-09T17:55:08.014Z,95640.72
2019-05-09T17:58:09.129Z,95634.63
2019-05-09T18:01:07.894Z,95643.83
2019-05-09T18:04:03.179Z,95649.88
2019-05-09T18:07:00.605Z,95646.56
2019-05-09T18:09:59.024Z,95651.38
2019-05-09T18:12:58.643Z,95650.97
2019-05-09T18:15:53.769Z,95656.09
2019-05-09T18:18:50.218Z,95660.05
2019-05-09T18:21:51.246Z,95668.19
2019-05-09T18:24:45.331Z,95670.81
2019-05-09T18:27:42.051Z,95677.67
2019-05-09T18:30:39.438Z,95674.31
2019-05-09T18:33:39.626Z,95682.80
2019-05-09T18:36:38.211Z,95681.98
2019-05-09T18:39:32.473Z,95683.64
2019-05-09T18:42:30.664Z,95689.66
2019-05-09T18:45:28.427Z,95685.88
2019-05-09T18:48:23.403Z,95693.97
2019-05-09T18:51:21.178Z,95702.45
2019-05-09T18:54:17.260Z,95708.42
2019-05-09T18:57:14.679Z,95712.70
2019-05-09T19:00:12.012Z,95722.97
2019-05-09T19:03:10.409Z,95731.48
2019-05-09T19:06:07.552Z,95735.73
2019-05-09T19:09:04.119Z,95742.94
2019-05-09T19:12:01.204Z,95741.70
2019-05-09T19:14:57.558Z,95744.21
2019-05-09T19:18:07.323Z,95751.03
2019-05-09T19:21:07.915Z,95751.48
2019-05-09T19:24:06.380Z,95753.67
2019-05-09T19:27:03.739Z,95759.63
2019-05-09T19:29:59.987Z,95761.36
2019-05-09T19:32:58.176Z,95764.33
2019-05-09T19:35:54.702Z,95775.81
2019-05-09T19:38:52.111Z,95780.89
2019-05-09T19:41:50.477Z,95779.23
2019-05-09T19:44:46.519Z,95783.50
2019-05-09T19:47:43.844Z,95791.13
2019-05-09T19:50:39.913Z,95794.13
2019-05-09T19:53:38.035Z,95783.95
2019-05-09T19:56:35.215Z,95787.34
2019-05-09T19:59:30.988Z,95791.13
2019-05-09T20:02:27.723Z,95794.95
2019-05-09T20:05:23.634Z,95802.13
2019-05-09T20:08:30.485Z,95804.61
2019-05-09T20:11:34.601Z,95813.12
2019-05-09T20:14:35.894Z,95807.61
2019-05-09T20:17:32.594Z,95814.03
2019-05-09T20:20:28.068Z,95803.55
2019-05-09T20:23:27.047Z,95820.14
2019-05-09T20:26:23.872Z,95829.52
2019-05-09T20:29:20.764Z,95824.94
2019-05-09T20:32:16.331Z,95833.07
2019-05-09T20:35:13.494Z,95839.05
2019-05-09T20:38:10.584Z,95838.66
2019-05-09T20:41:13.597Z,95845.02
2019-05-09T20:44:11.151Z,95850.94
2019-05-09T20:47:09.159Z,95849.68
2019-05-09T20:50:06.142Z,95855.19
2019-05-09T20:53:09.613Z,95858.12
2019-05-09T20:55:58.924Z,95856.02
2019-05-09T20:58:56.211Z,95865.36
2019-05-09T21:01:53.137Z,95866.19
2019-05-09T21:04:51.655Z,95872.94
2019-05-09T21:07:51.555Z,95868.30
2019-05-09T21:10:53.466Z,95880.56
2019-05-09T21:13:51.177Z,95877.17
2019-05-09T21:16:54.918Z,95890.73
2019-05-09T21:19:50.755Z,95889.06
2019-05-09T21:22:48.328Z,95891.61
2019-05-09T21:25:44.291Z,95885.30
2019-05-09T21:28:46.911Z,95892.87
2019-05-09T21:31:37.867Z,95888.24
2019-05-09T21:34:35.890Z,95893.33
2019-05-09T21:37:31.503Z,95895.88
2019-05-09T21:40:28.708Z,95892.45
2019-05-09T21:43:24.951Z,95896.70
2019-05-09T21:46:20.231Z,95904.34
2019-05-09T21:49:17.373Z,95915.44
2019-05-09T21:52:12.875Z,95910.81
2019-05-09T21:55:10.688Z,95920.64
2019-05-09T21:58:07.325Z,95923.20
2019-05-09T22:01:05.256Z,95926.66
2019-05-09T22:04:02.785Z,95929.67
2019-05-09T22:06:57.735Z,95930.93
2019-05-09T22:09:54.760Z,95934.39
2019-05-09T22:12:50.298Z,95937.77
2019-05-09T22:15:48.154Z,95941.59
2019-05-09T22:18:44.607Z,95936.11
2019-05-09T22:21:39.866Z,95949.21
2019-05-09T22:24:36.734Z,95950.48
2019-05-09T22:27:31.859Z,95956.39
2019-05-09T22:30:28.526Z,95955.56
2019-05-09T22:33:30.712Z,95953.94
2019-05-09T22:36:27.601Z,95954.78
2019-05-09T22:39:24.422Z,95954.80
2019-05-09T22:42:20.958Z,95957.33
2019-05-09T22:45:17.646Z,95957.33
2019-05-09T22:48:14.340Z,95958.20
2019-05-09T22:51:12.138Z,95951.51
2019-05-09T22:54:12.801Z,95956.68
2019-05-09T22:57:04.426Z,95977.88
2019-05-09T23:00:02.667Z,95970.31
2019-05-09T23:02:57.911Z,95974.53
2019-05-09T23:05:56.473Z,95972.42
2019-05-09T23:08:57.337Z,95982.17
2019-05-09T23:11:53.959Z,95983.84
2019-05-09T23:14:51.248Z,95983.00
2019-05-09T23:17:47.036Z,95993.96
2019-05-09T23:21:01.773Z,95995.67
2019-05-09T23:24:27.979Z,95999.08
2019-05-09T23:27:12.182Z,95994.05
2019-05-09T23:30:09.763Z,95997.51
2019-05-09T23:33:04.764Z,96002.62
2019-05-09T23:36:02.330Z,96003.08
2019-05-09T23:39:10.190Z,95999.29
2019-05-09T23:42:06.948Z,96005.23
2019-05-09T23:45:02.848Z,96006.98
2019-05-09T23:48:00.400Z,96001.47
2019-05-09T23:50:58.237Z,95995.14
2019-05-09T23:53:49.001Z,96003.19
2019-05-09T23:56:57.495Z,96006.14
